createdAt,value
2022-12-19T00:01:33.021Z,102782.13
2022-12-19T00:04:47.876Z,102761.31
2022-12-19T00:07:56.580Z,102788.38
2022-12-19T00:11:12.862Z,102792.78
2022-12-19T00:14:15.291Z,102792.94
2022-12-19T00:17:29.868Z,102782.00
2022-12-19T00:20:44.845Z,102791.41
2022-12-19T00:23:53.884Z,102792.63
2022-12-19T00:27:02.842Z,102792.63
2022-12-19T00:30:12.121Z,102784.75
2022-12-19T00:33:20.833Z,102791.69
2022-12-19T00:36:32.143Z,102795.25
2022-12-19T00:39:40.842Z,102789.06
2022-12-19T00:42:55.860Z,102794.28
2022-12-19T00:46:09.880Z,102793.88
2022-12-19T00:49:24.858Z,102786.53
2022-12-19T00:52:39.844Z,102792.63
2022-12-19T00:55:41.822Z,102794.28
2022-12-19T00:58:56.872Z,102793.47
2022-12-19T01:01:58.905Z,102789.03
2022-12-19T01:05:14.853Z,102776.03
2022-12-19T01:08:16.854Z,102779.34
2022-12-19T01:11:32.882Z,102773.16
2022-12-19T01:14:41.854Z,102783.91
2022-12-19T01:17:57.099Z,102774.25
2022-12-19T01:21:07.865Z,102772.44
2022-12-19T01:24:19.008Z,102770.62
2022-12-19T01:27:27.834Z,102760.41
2022-12-19T01:30:46.863Z,102765.28
2022-12-19T01:33:56.510Z,102754.50
2022-12-19T01:37:11.855Z,102746.47
2022-12-19T01:40:28.835Z,102736.53
2022-12-19T01:43:40.855Z,102735.97
2022-12-19T01:47:02.845Z,102728.50
2022-12-19T01:50:23.862Z,102734.03
2022-12-19T01:53:29.077Z,102727.25
2022-12-19T01:56:48.801Z,102721.06
2022-12-19T02:00:02.791Z,102707.78
2022-12-19T02:03:27.394Z,102727.12
2022-12-19T02:06:42.826Z,102716.47
2022-12-19T02:09:46.693Z,102713.59
2022-12-19T02:13:01.800Z,102711.63
2022-12-19T02:16:16.345Z,102714.63
2022-12-19T02:19:58.834Z,102719.38
2022-12-19T02:23:06.824Z,102719.09
2022-12-19T02:26:43.429Z,102720.03
2022-12-19T02:30:16.820Z,102722.25
2022-12-19T02:33:54.402Z,102726.38
2022-12-19T02:37:45.810Z,102729.25
2022-12-19T02:41:03.815Z,102724.00
2022-12-19T02:44:18.489Z,102737.81
2022-12-19T02:47:28.817Z,102725.69
2022-12-19T02:50:43.915Z,102737.25
2022-12-19T02:53:53.823Z,102740.56
2022-12-19T02:57:13.518Z,102727.28
2022-12-19T03:00:29.841Z,102750.34
2022-12-19T03:03:48.060Z,102742.75
2022-12-19T03:07:40.873Z,102749.09
2022-12-19T03:11:01.385Z,102735.53
2022-12-19T03:14:22.834Z,102727.94
2022-12-19T03:17:26.093Z,102723.50
2022-12-19T03:21:01.841Z,102722.00
2022-12-19T03:24:05.777Z,102722.00
2022-12-19T03:27:39.822Z,102715.06
2022-12-19T03:30:50.889Z,102706.50
2022-12-19T03:34:07.771Z,102705.00
2022-12-19T03:37:34.796Z,102698.63
2022-12-19T03:40:39.665Z,102687.44
2022-12-19T03:43:54.831Z,102699.03
2022-12-19T03:47:14.831Z,102692.50
2022-12-19T03:50:29.498Z,102700.25
2022-12-19T03:54:00.850Z,102700.94
2022-12-19T03:57:40.015Z,102706.47
2022-12-19T04:00:51.825Z,102707.00
2022-12-19T04:04:08.825Z,102710.31
2022-12-19T04:07:18.422Z,102710.59
2022-12-19T04:10:29.845Z,102711.44
2022-12-19T04:13:51.852Z,102697.47
2022-12-19T04:17:09.634Z,102699.81
2022-12-19T04:20:28.835Z,102709.34
2022-12-19T04:23:50.825Z,102704.47
2022-12-19T04:27:08.799Z,102704.47
2022-12-19T04:30:19.446Z,102696.75
2022-12-19T04:33:27.817Z,102707.50
2022-12-19T04:36:42.852Z,102711.91
2022-12-19T04:39:44.864Z,102708.84
2022-12-19T04:42:59.818Z,102705.94
2022-12-19T04:46:14.872Z,102710.22
2022-12-19T04:49:29.860Z,102712.53
2022-12-19T04:52:31.878Z,102710.59
2022-12-19T04:55:46.809Z,102709.09
2022-12-19T04:58:59.779Z,102708.13
2022-12-19T05:02:07.905Z,102707.81
2022-12-19T05:05:16.595Z,102715.41
2022-12-19T05:08:31.801Z,102711.81
2022-12-19T05:11:46.839Z,102701.81
2022-12-19T05:14:55.554Z,102696.28
2022-12-19T05:18:04.821Z,102708.13
2022-12-19T05:21:26.813Z,102704.00
2022-12-19T05:24:28.735Z,102722.94
2022-12-19T05:27:43.802Z,102714.63
2022-12-19T05:30:52.778Z,102708.09
2022-12-19T05:34:07.796Z,102707.63
2022-12-19T05:37:16.838Z,102700.41
2022-12-19T05:40:25.452Z,102697.78
2022-12-19T05:43:40.821Z,102698.28
2022-12-19T05:46:49.892Z,102690.28
2022-12-19T05:49:58.520Z,102704.09
2022-12-19T05:53:13.802Z,102716.41
2022-12-19T05:56:19.397Z,102702.16
2022-12-19T05:59:33.841Z,102705.44
2022-12-19T06:02:35.854Z,102705.97
2022-12-19T06:05:50.816Z,102708.47
2022-12-19T06:08:58.294Z,102699.72
2022-12-19T06:12:13.791Z,102700.41
2022-12-19T06:15:15.709Z,102711.00
2022-12-19T06:18:30.797Z,102715.97
2022-12-19T06:21:48.495Z,102718.75
2022-12-19T06:24:56.803Z,102712.28
2022-12-19T06:28:11.795Z,102709.88
2022-12-19T06:31:22.836Z,102720.72
2022-12-19T06:35:02.855Z,102720.72
2022-12-19T06:38:01.133Z,102726.72
2022-12-19T06:41:16.788Z,102726.44
2022-12-19T06:44:31.810Z,102735.44
2022-12-19T06:47:33.801Z,102729.62
2022-12-19T06:50:48.779Z,102732.25
2022-12-19T06:54:03.791Z,102733.94
2022-12-19T07:01:47.943Z,102729.28
2022-12-19T07:05:04.182Z,102728.97
2022-12-19T07:08:19.906Z,102730.75
2022-12-19T07:11:28.869Z,102738.97
2022-12-19T07:14:45.867Z,102751.66
2022-12-19T07:17:51.403Z,102747.59
2022-12-19T07:21:05.788Z,102750.00
2022-12-19T07:24:21.761Z,102759.16
2022-12-19T07:27:37.835Z,102746.53
2022-12-19T07:30:54.785Z,102749.84
2022-12-19T07:34:10.782Z,102756.31
2022-12-19T07:37:25.809Z,102744.53
2022-12-19T07:40:41.805Z,102744.53
2022-12-19T07:43:50.804Z,102750.09
2022-12-19T07:46:59.439Z,102755.44
2022-12-19T07:50:07.784Z,102749.66
2022-12-19T07:53:22.787Z,102741.38
2022-12-19T07:56:24.809Z,102736.19
2022-12-19T07:59:40.790Z,102741.22
2022-12-19T08:02:55.861Z,102737.91
2022-12-19T08:06:12.814Z,102748.87
2022-12-19T08:09:27.792Z,102759.28
2022-12-19T08:12:29.774Z,102750.81
2022-12-19T08:15:44.770Z,102754.69
2022-12-19T08:18:46.823Z,102765.72
2022-12-19T08:22:08.812Z,102777.41
2022-12-19T08:25:19.360Z,102777.88
2022-12-19T08:28:28.784Z,102773.50
2022-12-19T08:31:43.800Z,102777.59
2022-12-19T08:34:52.900Z,102766.25
2022-12-19T08:38:08.789Z,102770.03
2022-12-19T08:41:10.777Z,102761.31
2022-12-19T08:44:25.763Z,102753.47
2022-12-19T08:47:33.760Z,102761.53
2022-12-19T08:51:09.173Z,102755.03
2022-12-19T08:54:23.758Z,102761.06
2022-12-19T08:57:31.785Z,102757.25
2022-12-19T09:00:54.063Z,102747.84
2022-12-19T09:05:24.261Z,102741.97
2022-12-19T09:07:42.760Z,102744.13
2022-12-19T09:10:51.664Z,102744.75
2022-12-19T09:14:02.779Z,102743.00
2022-12-19T09:17:11.448Z,102742.47
2022-12-19T09:20:26.889Z,102736.31
2022-12-19T09:28:25.922Z,102732.34
2022-12-19T09:31:27.817Z,102743.34
2022-12-19T09:34:42.756Z,102757.00
2022-12-19T09:38:00.370Z,102735.91
2022-12-19T09:41:37.800Z,102752.09
2022-12-19T09:45:01.531Z,102744.66
2022-12-19T09:48:24.159Z,102726.25
2022-12-19T09:51:38.236Z,102718.41
2022-12-19T09:55:04.777Z,102709.22
2022-12-19T09:58:37.536Z,102711.59
2022-12-19T10:02:10.551Z,102712.69
2022-12-19T10:07:02.538Z,102711.66
2022-12-19T10:10:12.206Z,102705.59
2022-12-19T10:13:24.649Z,102695.56
2022-12-19T10:17:23.599Z,102685.97
2022-12-19T10:20:47.103Z,102679.00
2022-12-19T10:24:10.855Z,102693.75
2022-12-19T10:27:26.762Z,102699.00
2022-12-19T10:31:01.470Z,102691.97
2022-12-19T10:34:25.838Z,102690.63
2022-12-19T10:37:51.789Z,102689.78
2022-12-19T10:41:35.006Z,102685.31
2022-12-19T10:44:56.980Z,102675.41
2022-12-19T10:48:25.295Z,102673.44
2022-12-19T10:51:47.920Z,102657.31
2022-12-19T10:55:02.788Z,102665.34
2022-12-19T10:58:26.709Z,102657.91
2022-12-19T11:01:45.851Z,102666.72
2022-12-19T11:04:53.721Z,102661.69
2022-12-19T11:08:20.857Z,102660.72
2022-12-19T11:13:39.974Z,102659.06
2022-12-19T11:19:39.694Z,102653.63
2022-12-19T11:28:36.712Z,102646.38
2022-12-19T11:30:25.886Z,102642.09
2022-12-19T11:34:39.773Z,102646.34
2022-12-19T11:38:07.744Z,102623.91
2022-12-19T11:41:40.740Z,102624.47
2022-12-19T11:44:58.300Z,102629.87
2022-12-19T11:48:16.180Z,102625.59
2022-12-19T11:55:50.750Z,102611.06
2022-12-19T11:59:39.197Z,102603.81
2022-12-19T12:03:10.153Z,102598.72
2022-12-19T12:06:28.005Z,102597.53
2022-12-19T12:16:20.285Z,102596.25
2022-12-19T12:24:20.079Z,102589.66
2022-12-19T12:28:36.253Z,102578.94
2022-12-19T12:31:14.997Z,102589.34
2022-12-19T12:31:45.378Z,102587.03
2022-12-19T12:32:03.001Z,102578.81
2022-12-19T12:35:38.341Z,102572.56
2022-12-19T12:38:14.356Z,102576.69
2022-12-19T12:41:26.583Z,102575.50
2022-12-19T12:44:47.742Z,102580.75
2022-12-19T12:47:51.772Z,102576.13
2022-12-19T12:51:07.772Z,102566.75
2022-12-19T12:54:14.229Z,102574.50
2022-12-19T12:57:35.760Z,102558.00
2022-12-19T13:05:14.301Z,102559.00
2022-12-19T13:08:45.727Z,102550.78
2022-12-19T13:12:10.765Z,102549.47
2022-12-19T13:15:22.880Z,102551.75
2022-12-19T13:18:40.721Z,102557.72
2022-12-19T13:22:10.727Z,102560.00
2022-12-19T13:25:35.297Z,102551.41
2022-12-19T13:28:46.803Z,102537.88
2022-12-19T13:32:14.263Z,102555.19
2022-12-19T13:36:34.657Z,102538.19
2022-12-19T13:39:59.350Z,102545.63
2022-12-19T13:42:33.716Z,102539.53
2022-12-19T13:45:56.739Z,102523.88
2022-12-19T13:49:08.939Z,102520.91
2022-12-19T13:52:24.719Z,102506.25
2022-12-19T13:55:29.428Z,102514.34
2022-12-19T13:59:00.706Z,102521.06
2022-12-19T14:02:46.405Z,102523.69
2022-12-19T14:06:17.569Z,102526.59
2022-12-19T14:11:29.535Z,102526.28
2022-12-19T14:13:58.869Z,102523.31
2022-12-19T14:16:46.742Z,102526.81
2022-12-19T14:21:14.580Z,102531.41
2022-12-19T14:28:26.430Z,102515.53
2022-12-19T14:31:23.386Z,102508.81
2022-12-19T14:35:04.008Z,102516.06
2022-12-19T14:39:19.656Z,102519.19
2022-12-19T14:41:58.963Z,102506.50
2022-12-19T14:52:35.127Z,102510.75
2022-12-19T14:54:07.298Z,102517.44
2022-12-19T14:54:34.717Z,102526.53
2022-12-19T14:57:06.190Z,102525.03
2022-12-19T15:01:07.186Z,102525.88
2022-12-19T15:04:51.241Z,102524.56
2022-12-19T15:08:00.703Z,102522.41
2022-12-19T15:11:49.950Z,102527.50
2022-12-19T15:15:21.727Z,102524.38
2022-12-19T15:18:39.672Z,102524.56
2022-12-19T15:21:55.176Z,102528.78
2022-12-19T15:25:04.079Z,102535.31
2022-12-19T15:28:15.709Z,102542.25
2022-12-19T15:31:46.405Z,102541.72
2022-12-19T15:34:55.467Z,102522.81
2022-12-19T15:38:10.707Z,102533.44
2022-12-19T15:41:24.790Z,102533.62
2022-12-19T15:44:39.696Z,102531.91
2022-12-19T15:47:55.694Z,102533.78
2022-12-19T15:50:57.681Z,102534.91
2022-12-19T15:57:56.321Z,102523.66
2022-12-19T16:01:08.706Z,102527.78
2022-12-19T16:08:31.842Z,102529.03
2022-12-19T16:11:46.715Z,102518.69
2022-12-19T16:15:05.714Z,102503.94
2022-12-19T16:18:21.684Z,102503.84
2022-12-19T16:21:37.005Z,102507.84
2022-12-19T16:24:46.014Z,102505.16
2022-12-19T16:31:52.713Z,102506.75
2022-12-19T16:35:07.674Z,102506.25
2022-12-19T16:38:23.704Z,102496.53
2022-12-19T16:41:32.581Z,102499.88
2022-12-19T16:44:57.682Z,102508.06
2022-12-19T16:48:38.692Z,102488.13
2022-12-19T16:51:47.488Z,102493.09
2022-12-19T16:55:02.671Z,102486.00
2022-12-19T16:58:04.847Z,102488.03
2022-12-19T17:01:19.775Z,102472.38
2022-12-19T17:04:26.259Z,102476.66
2022-12-19T17:07:41.697Z,102475.22
2022-12-19T17:10:57.665Z,102483.22
2022-12-19T17:14:08.158Z,102488.53
2022-12-19T17:17:22.673Z,102487.94
2022-12-19T17:20:59.678Z,102486.50
2022-12-19T17:24:19.678Z,102489.44
2022-12-19T17:27:21.635Z,102488.25
2022-12-19T17:30:36.700Z,102494.16
2022-12-19T17:33:46.685Z,102497.13
2022-12-19T17:36:55.432Z,102499.12
2022-12-19T17:40:03.693Z,102502.78
2022-12-19T17:43:13.271Z,102497.03
2022-12-19T17:46:26.733Z,102504.75
2022-12-19T17:49:35.304Z,102514.63
2022-12-19T17:52:49.680Z,102512.75
2022-12-19T17:55:58.285Z,102515.56
2022-12-19T17:59:12.720Z,102507.03
2022-12-19T18:02:33.796Z,102509.00
2022-12-19T18:05:42.317Z,102504.75
2022-12-19T18:08:50.675Z,102498.53
2022-12-19T18:12:00.102Z,102498.00
2022-12-19T18:15:11.647Z,102503.44
2022-12-19T18:18:31.861Z,102492.69
2022-12-19T18:21:47.666Z,102495.81
2022-12-19T18:24:56.664Z,102492.34
2022-12-19T18:28:11.713Z,102506.34
2022-12-19T18:31:15.586Z,102504.69
2022-12-19T18:34:32.640Z,102506.53
2022-12-19T18:37:47.672Z,102512.88
2022-12-19T18:40:57.977Z,102512.38
2022-12-19T18:44:12.690Z,102493.41
2022-12-19T18:47:24.633Z,102479.75
2022-12-19T18:50:40.689Z,102471.22
2022-12-19T18:53:49.969Z,102467.44
2022-12-19T18:57:04.914Z,102459.91
2022-12-19T19:00:16.959Z,102460.22
2022-12-19T19:03:31.751Z,102446.69
2022-12-19T19:06:52.285Z,102449.03
2022-12-19T19:09:54.764Z,102450.81
2022-12-19T19:13:10.563Z,102446.06
2022-12-19T19:16:22.901Z,102432.56
2022-12-19T19:19:31.688Z,102431.75
2022-12-19T19:22:53.837Z,102432.25
2022-12-19T19:25:55.939Z,102423.69
2022-12-19T19:29:10.653Z,102432.25
2022-12-19T19:32:27.058Z,102432.72
2022-12-19T19:35:36.910Z,102429.94
2022-12-19T19:38:56.809Z,102434.41
2022-12-19T19:42:05.848Z,102436.41
2022-12-19T19:45:15.899Z,102432.28
2022-12-19T19:48:24.390Z,102422.59
2022-12-19T19:51:33.661Z,102427.38
2022-12-19T19:54:48.667Z,102425.72
2022-12-19T19:57:58.685Z,102420.63
2022-12-19T20:01:18.029Z,102420.47
2022-12-19T20:04:21.015Z,102408.47
2022-12-19T20:07:35.668Z,102405.31
2022-12-19T20:10:44.660Z,102404.50
2022-12-19T20:13:53.832Z,102413.88
2022-12-19T20:17:08.649Z,102410.88
2022-12-19T20:20:11.228Z,102410.75
2022-12-19T20:23:32.674Z,102431.34
2022-12-19T20:26:47.723Z,102426.09
2022-12-19T20:29:49.721Z,102427.69
2022-12-19T20:33:05.657Z,102433.78
2022-12-19T20:36:14.858Z,102429.50
2022-12-19T20:39:29.908Z,102436.44
2022-12-19T20:42:39.627Z,102423.09
2022-12-19T20:45:55.110Z,102415.91
2022-12-19T20:49:10.666Z,102412.56
2022-12-19T20:52:19.641Z,102407.97
2022-12-19T20:55:34.667Z,102405.16
2022-12-19T20:58:50.645Z,102406.13
2022-12-19T21:01:52.880Z,102403.47
2022-12-19T21:05:07.746Z,102406.47
2022-12-19T21:08:09.837Z,102411.78
2022-12-19T21:11:24.630Z,102412.53
2022-12-19T21:14:26.595Z,102412.38
2022-12-19T21:17:41.657Z,102412.38
2022-12-19T21:21:03.646Z,102410.25
2022-12-19T21:24:12.413Z,102400.72
2022-12-19T21:27:27.663Z,102399.87
2022-12-19T21:30:37.026Z,102400.09
2022-12-19T21:33:52.650Z,102397.94
2022-12-19T21:37:07.629Z,102410.63
2022-12-19T21:40:16.694Z,102407.31
2022-12-19T21:43:31.620Z,102405.84
2022-12-19T21:46:46.694Z,102398.22
2022-12-19T21:50:01.641Z,102388.53
2022-12-19T21:53:10.521Z,102394.59
2022-12-19T21:56:29.629Z,102387.50
2022-12-19T21:59:31.621Z,102383.84
2022-12-19T22:03:11.584Z,102384.03
2022-12-19T22:06:28.230Z,102396.06
2022-12-19T22:09:37.383Z,102393.09
2022-12-19T22:12:45.643Z,102395.53
2022-12-19T22:16:00.673Z,102393.91
2022-12-19T22:19:03.553Z,102405.25
2022-12-19T22:22:25.652Z,102400.28
2022-12-19T22:25:34.283Z,102398.63
2022-12-19T22:28:44.656Z,102383.84
2022-12-19T22:31:53.284Z,102375.78
2022-12-19T22:35:01.671Z,102373.97
2022-12-19T22:38:10.191Z,102360.09
2022-12-19T22:41:19.623Z,102346.97
2022-12-19T22:44:28.202Z,102350.31
2022-12-19T22:47:36.619Z,102341.56
2022-12-19T22:50:45.964Z,102346.97
2022-12-19T22:53:54.644Z,102335.78
2022-12-19T22:57:03.229Z,102339.66
2022-12-19T23:00:16.618Z,102334.22
2022-12-19T23:03:25.413Z,102320.41
2022-12-19T23:06:37.658Z,102296.94
2022-12-19T23:09:52.635Z,102303.97
2022-12-19T23:13:07.632Z,102300.81
2022-12-19T23:16:10.313Z,102297.22
2022-12-19T23:19:25.609Z,102300.97
2022-12-19T23:22:40.924Z,102314.16
2022-12-19T23:25:56.633Z,102300.34
2022-12-19T23:29:22.611Z,102311.87
2022-12-19T23:32:30.621Z,102303.69
2022-12-19T23:35:45.626Z,102300.75
2022-12-19T23:38:53.602Z,102294.00
2022-12-19T23:42:08.935Z,102304.84
2022-12-19T23:45:17.612Z,102293.66
2022-12-19T23:48:34.611Z,102296.75
2022-12-19T23:51:43.619Z,102294.31
2022-12-19T23:54:52.353Z,102284.44
2022-12-19T23:58:00.611Z,102282.81
